Hanapepe, Hawaii
Current Conditions -  °F | °C
As of 4:56 AM on Thursday 30 Oct 2014 (Local Time) from PHBK Reporting Station
Clear Clear  
Wind Chill: 71°   Ceiling: Unl
Heat Index: 71°   Visibility: 10mi
Dew Point: 65°   Wind: 5mph
Humidity: 81%   Direction: 60°ENE
Pressure: 30.04"   Gusts: NA
Location:  21.9°N, 159.59°W
Report Text: PHBK 301456Z AUTO 06004KT 10SM CLR 22/18 A3004 RMK AO2 SLP176 T02170183 56009
Loading
Personal Weather Stations






























Interactive Weather Map
Tropical Storm Tracking
New forecast layout! Learn more

10-Day Weather Forecast

Advertisements
Track Severe Weather on mobile